Time;durP1;ratioP1;P1;durP2;ratioP2;P2;SDS_P1;SDS_P2;PMS_P1;PMS_P2;Temp;Humidity;BMP_temperature;BMP_pressure;BME280_temperature;BME280_humidity;BME280_pressure;Samples;Min_cycle;Max_cycle;Signal;HPM_P1;HPM_P2
2023/07/07 00:02:28;;;;;;;5.47;3.22;;;;;;;;;;10353095;28;20026;-58
2023/07/07 00:07:28;;;;;;;5.78;3.50;;;;;;;;;;10356565;28;20030;-59
2023/07/07 00:12:30;;;;;;;10.00;3.00;;;;;;;;;;10343501;28;20026;-59
2023/07/07 00:17:30;;;;;;;4.93;3.38;;;;;;;;;;10345975;28;20621;-59
2023/07/07 00:22:31;;;;;;;6.00;3.00;;;;;;;;;;10340669;28;20279;-58
2023/07/07 00:27:32;;;;;;;6.15;3.38;;;;;;;;;;10339612;28;20038;-58
2023/07/07 00:32:33;;;;;;;6.38;3.25;;;;;;;;;;10352677;28;20470;-58
2023/07/07 00:37:34;;;;;;;4.25;2.80;;;;;;;;;;10346705;28;20029;-58
2023/07/07 00:42:35;;;;;;;9.10;2.85;;;;;;;;;;10331117;28;20389;-58
2023/07/07 00:47:44;;;;;;;6.18;2.75;;;;;;;;;;10326990;28;20044;-58
2023/07/07 00:52:45;;;;;;;3.25;2.50;;;;;;;;;;10345660;28;20087;-59
2023/07/07 00:57:47;;;;;;;3.58;2.50;;;;;;;;;;10336727;28;20038;-58
2023/07/07 01:02:55;;;;;;;6.30;2.17;;;;;;;;;;10339023;28;20453;-57
2023/07/07 01:08:00;;;;;;;4.38;2.30;;;;;;;;;;10348121;28;20026;-58
2023/07/07 01:13:01;;;;;;;5.63;2.30;;;;;;;;;;10353615;28;20026;-57
2023/07/07 01:18:47;;;;;;;4.47;2.20;;;;;;;;;;10333245;28;20105;-58
2023/07/07 01:24:41;;;;;;;3.97;2.30;;;;;;;;;;10339141;28;20371;-58
2023/07/07 01:30:13;;;;;;;4.55;1.95;;;;;;;;;;10332726;28;20117;-58
2023/07/07 01:35:18;;;;;;;8.05;2.55;;;;;;;;;;10342795;28;21225;-58
2023/07/07 01:40:19;;;;;;;4.18;2.30;;;;;;;;;;10344948;28;20257;-58
2023/07/07 01:45:48;;;;;;;6.68;2.83;;;;;;;;;;10347207;28;20169;-58
2023/07/07 01:50:51;;;;;;;3.67;2.38;;;;;;;;;;10341301;28;20050;-58
2023/07/07 01:55:57;;;;;;;4.88;2.10;;;;;;;;;;10338604;28;20018;-58
2023/07/07 02:01:00;;;;;;;4.28;2.25;;;;;;;;;;10331006;28;20022;-58
2023/07/07 02:06:00;;;;;;;3.50;2.25;;;;;;;;;;10346004;28;20379;-58
2023/07/07 02:11:01;;;;;;;6.88;2.92;;;;;;;;;;10339969;28;20038;-58
2023/07/07 02:16:03;;;;;;;4.68;2.70;;;;;;;;;;10350008;28;20033;-58
2023/07/07 02:21:05;;;;;;;6.55;2.25;;;;;;;;;;10343802;28;20023;-58
2023/07/07 02:26:05;;;;;;;4.90;2.45;;;;;;;;;;10335755;28;20037;-58
2023/07/07 02:31:10;;;;;;;8.07;2.90;;;;;;;;;;10346039;28;20101;-60
2023/07/07 02:36:11;;;;;;;4.15;2.50;;;;;;;;;;10337284;28;20474;-59
2023/07/07 02:41:12;;;;;;;8.82;2.97;;;;;;;;;;10353538;28;20036;-59
2023/07/07 02:46:13;;;;;;;8.35;2.50;;;;;;;;;;10347073;28;20398;-59
2023/07/07 02:51:13;;;;;;;4.93;2.90;;;;;;;;;;10343938;28;20056;-59
2023/07/07 02:56:14;;;;;;;5.05;3.00;;;;;;;;;;10334430;28;20030;-58
2023/07/07 03:01:19;;;;;;;4.50;2.65;;;;;;;;;;10336449;28;20038;-58
2023/07/07 03:06:22;;;;;;;6.35;3.00;;;;;;;;;;10359757;28;20508;-58
2023/07/07 03:11:23;;;;;;;4.95;2.63;;;;;;;;;;10348063;28;20034;-58
2023/07/07 03:16:31;;;;;;;7.32;2.90;;;;;;;;;;10348518;28;20478;-58
2023/07/07 03:21:32;;;;;;;2.92;2.33;;;;;;;;;;10352547;28;20021;-58
2023/07/07 03:26:33;;;;;;;5.22;2.85;;;;;;;;;;10360034;28;20048;-58
2023/07/07 03:31:33;;;;;;;3.72;2.50;;;;;;;;;;10364563;28;20034;-58
2023/07/07 03:36:35;;;;;;;6.72;3.22;;;;;;;;;;10347512;28;20057;-58
2023/07/07 03:41:36;;;;;;;4.28;2.85;;;;;;;;;;10352012;28;20037;-58
2023/07/07 03:46:37;;;;;;;4.60;2.75;;;;;;;;;;10343703;28;20027;-57
2023/07/07 03:51:38;;;;;;;8.23;2.70;;;;;;;;;;10330826;28;20050;-58
2023/07/07 03:56:38;;;;;;;10.93;3.22;;;;;;;;;;10343639;28;20130;-58
2023/07/07 04:01:39;;;;;;;5.97;3.40;;;;;;;;;;10340654;28;20037;-58
2023/07/07 04:06:39;;;;;;;7.03;3.20;;;;;;;;;;10347273;28;20068;-58
2023/07/07 04:11:40;;;;;;;8.00;3.13;;;;;;;;;;10349951;28;20030;-58
2023/07/07 04:16:41;;;;;;;4.50;2.72;;;;;;;;;;10343471;28;20481;-59
2023/07/07 04:21:41;;;;;;;12.80;3.45;;;;;;;;;;10340049;28;20558;-58
2023/07/07 04:26:43;;;;;;;3.95;2.95;;;;;;;;;;10346568;28;20030;-58
2023/07/07 04:31:45;;;;;;;5.78;2.75;;;;;;;;;;10339958;28;20101;-58
2023/07/07 04:36:46;;;;;;;10.10;2.83;;;;;;;;;;10358949;28;20027;-58
2023/07/07 04:41:50;;;;;;;9.25;2.78;;;;;;;;;;10333421;28;20435;-58
2023/07/07 04:46:51;;;;;;;6.30;2.83;;;;;;;;;;10346930;28;20477;-58
2023/07/07 04:51:51;;;;;;;3.75;2.53;;;;;;;;;;10357294;28;20029;-59
2023/07/07 04:56:53;;;;;;;5.47;2.97;;;;;;;;;;10337202;28;20393;-58
2023/07/07 05:01:54;;;;;;;3.38;2.30;;;;;;;;;;10346921;28;20061;-57
2023/07/07 05:06:54;;;;;;;4.38;2.60;;;;;;;;;;10358240;28;20386;-59
2023/07/07 05:11:55;;;;;;;5.82;2.80;;;;;;;;;;10347288;28;20046;-58
2023/07/07 05:16:56;;;;;;;5.88;2.92;;;;;;;;;;10343011;28;20470;-59
2023/07/07 05:21:57;;;;;;;5.32;3.03;;;;;;;;;;10346289;28;20034;-59
2023/07/07 05:26:58;;;;;;;3.40;2.60;;;;;;;;;;10348730;28;20026;-59
2023/07/07 05:31:58;;;;;;;6.35;2.58;;;;;;;;;;10350639;28;20033;-59
2023/07/07 05:36:59;;;;;;;3.90;2.20;;;;;;;;;;10342233;28;20030;-59
2023/07/07 05:41:59;;;;;;;3.28;2.50;;;;;;;;;;10353366;28;20026;-59
2023/07/07 05:47:00;;;;;;;8.13;2.78;;;;;;;;;;10348076;28;20034;-58
2023/07/07 05:52:00;;;;;;;4.88;2.60;;;;;;;;;;10339841;28;20021;-59
2023/07/07 05:57:02;;;;;;;5.57;2.58;;;;;;;;;;10350995;28;20529;-59
2023/07/07 06:02:02;;;;;;;7.20;2.65;;;;;;;;;;10347747;28;20083;-59
2023/07/07 06:07:03;;;;;;;4.30;2.40;;;;;;;;;;10344030;28;20028;-58
2023/07/07 06:12:05;;;;;;;9.93;2.78;;;;;;;;;;10340183;28;20060;-58
2023/07/07 06:17:06;;;;;;;16.17;3.50;;;;;;;;;;10352320;28;20053;-59
2023/07/07 06:22:07;;;;;;;9.32;3.63;;;;;;;;;;10333951;28;20249;-60
2023/07/07 06:27:07;;;;;;;15.50;2.80;;;;;;;;;;10359924;28;20026;-60
2023/07/07 06:32:09;;;;;;;6.57;2.88;;;;;;;;;;10356809;28;20046;-60
2023/07/07 06:37:10;;;;;;;4.75;2.60;;;;;;;;;;10349759;28;20037;-59
2023/07/07 06:42:13;;;;;;;17.77;3.38;;;;;;;;;;10358993;28;20030;-59
2023/07/07 06:47:17;;;;;;;8.30;3.30;;;;;;;;;;10360204;28;20038;-58
2023/07/07 06:52:18;;;;;;;6.18;2.70;;;;;;;;;;10359714;28;20028;-58
2023/07/07 06:57:18;;;;;;;3.03;2.53;;;;;;;;;;10340158;28;20386;-58
2023/07/07 07:02:19;;;;;;;6.00;2.72;;;;;;;;;;10334017;28;20485;-58
2023/07/07 07:07:19;;;;;;;7.88;2.88;;;;;;;;;;10364499;28;20026;-58
2023/07/07 07:12:20;;;;;;;4.13;2.33;;;;;;;;;;10366997;28;20021;-58
2023/07/07 07:17:24;;;;;;;6.65;2.83;;;;;;;;;;10350257;28;20026;-58
2023/07/07 07:22:25;;;;;;;7.07;2.90;;;;;;;;;;10367927;28;20022;-58
2023/07/07 07:27:26;;;;;;;4.53;2.35;;;;;;;;;;10353633;28;20026;-58
2023/07/07 07:32:26;;;;;;;7.95;2.50;;;;;;;;;;10362246;28;20023;-58
2023/07/07 07:37:27;;;;;;;5.30;2.78;;;;;;;;;;10349397;28;20030;-58
2023/07/07 07:42:28;;;;;;;2.92;2.40;;;;;;;;;;10350930;28;20022;-58
2023/07/07 07:47:29;;;;;;;3.28;2.80;;;;;;;;;;10343237;28;20052;-58
2023/07/07 07:52:29;;;;;;;4.43;2.90;;;;;;;;;;10352724;28;20034;-58
2023/07/07 07:57:30;;;;;;;9.60;2.67;;;;;;;;;;10354402;28;20026;-58
2023/07/07 08:02:31;;;;;;;6.00;2.70;;;;;;;;;;10364903;28;20080;-58
2023/07/07 08:07:32;;;;;;;4.55;2.58;;;;;;;;;;10343118;28;20141;-58
2023/07/07 08:12:33;;;;;;;3.65;2.60;;;;;;;;;;10337275;28;20029;-58
2023/07/07 08:17:33;;;;;;;5.13;2.90;;;;;;;;;;10362458;28;20037;-58
2023/07/07 08:22:34;;;;;;;5.43;2.63;;;;;;;;;;10352873;28;20489;-58
2023/07/07 08:27:35;;;;;;;8.00;2.95;;;;;;;;;;10351673;28;20531;-58
2023/07/07 08:32:35;;;;;;;3.33;2.45;;;;;;;;;;10349364;28;20026;-58
2023/07/07 08:37:36;;;;;;;4.22;2.25;;;;;;;;;;10358803;28;20676;-58
2023/07/07 08:42:39;;;;;;;2.80;2.50;;;;;;;;;;10346969;28;20489;-58
2023/07/07 08:47:56;;;;;;;2.90;2.60;;;;;;;;;;10336862;28;20391;-58
2023/07/07 08:53:26;;;;;;;3.20;2.65;;;;;;;;;;10342046;28;20029;-58
2023/07/07 08:58:40;;;;;;;3.75;2.90;;;;;;;;;;10342346;28;20036;-58
2023/07/07 09:04:04;;;;;;;2.63;2.28;;;;;;;;;;10341610;28;20378;-58
2023/07/07 09:09:15;;;;;;;4.25;2.53;;;;;;;;;;10354967;28;20034;-58
2023/07/07 09:14:16;;;;;;;3.90;2.60;;;;;;;;;;10360372;28;20021;-57
2023/07/07 09:19:25;;;;;;;5.75;2.70;;;;;;;;;;10351749;28;20019;-58
2023/07/07 09:24:53;;;;;;;2.80;2.47;;;;;;;;;;10337264;28;20048;-59
2023/07/07 09:30:10;;;;;;;3.95;2.67;;;;;;;;;;10348679;28;20033;-59
2023/07/07 09:35:14;;;;;;;3.55;2.75;;;;;;;;;;10338520;28;20038;-58
2023/07/07 09:40:25;;;;;;;3.42;2.70;;;;;;;;;;10336325;28;20184;-58
2023/07/07 09:45:37;;;;;;;3.53;2.70;;;;;;;;;;10349542;28;20030;-58
2023/07/07 09:51:00;;;;;;;5.38;3.13;;;;;;;;;;10342267;28;20042;-58
2023/07/07 09:56:02;;;;;;;4.30;2.70;;;;;;;;;;10363574;28;20026;-58
2023/07/07 10:01:04;;;;;;;3.58;3.08;;;;;;;;;;10335200;28;20109;-58
2023/07/07 10:06:34;;;;;;;3.80;2.83;;;;;;;;;;10351073;28;20053;-58
2023/07/07 10:11:38;;;;;;;4.13;3.20;;;;;;;;;;10323607;28;20032;-58
2023/07/07 10:17:00;;;;;;;4.85;2.95;;;;;;;;;;10336506;28;20026;-59
2023/07/07 10:22:01;;;;;;;4.28;2.85;;;;;;;;;;10328669;28;20049;-58
2023/07/07 10:27:01;;;;;;;4.63;2.60;;;;;;;;;;10348714;28;20016;-59
2023/07/07 10:32:03;;;;;;;3.28;2.65;;;;;;;;;;10348246;28;20029;-58
2023/07/07 10:37:29;;;;;;;5.55;2.72;;;;;;;;;;10344926;28;20044;-58
2023/07/07 10:42:31;;;;;;;5.22;2.83;;;;;;;;;;10329836;28;20359;-58
2023/07/07 10:47:35;;;;;;;5.13;2.80;;;;;;;;;;10339937;28;20050;-59
2023/07/07 10:53:05;;;;;;;4.55;2.80;;;;;;;;;;10353262;28;20018;-59
2023/07/07 10:58:20;;;;;;;3.88;3.13;;;;;;;;;;10336534;28;20386;-59
2023/07/07 11:04:05;;;;;;;6.30;3.00;;;;;;;;;;10347376;28;20477;-58
2023/07/07 11:09:33;;;;;;;3.38;2.63;;;;;;;;;;10349616;28;20391;-59
2023/07/07 11:15:14;;;;;;;4.28;3.30;;;;;;;;;;10357430;28;20030;-59
2023/07/07 11:20:49;;;;;;;4.25;2.75;;;;;;;;;;10337140;28;20038;-58
2023/07/07 11:26:20;;;;;;;3.38;2.80;;;;;;;;;;10346333;28;20109;-59
2023/07/07 11:31:38;;;;;;;4.50;3.03;;;;;;;;;;10335906;28;20185;-59
2023/07/07 11:37:07;;;;;;;4.25;3.08;;;;;;;;;;10335423;28;20026;-59
2023/07/07 11:42:32;;;;;;;3.50;2.90;;;;;;;;;;10326013;28;20116;-59
2023/07/07 11:48:10;;;;;;;4.60;3.15;;;;;;;;;;10350465;28;20046;-59
2023/07/07 11:53:36;;;;;;;4.15;2.83;;;;;;;;;;10345392;28;20040;-58
2023/07/07 11:58:49;;;;;;;3.13;2.83;;;;;;;;;;10363524;28;20036;-59
2023/07/07 12:04:05;;;;;;;4.05;3.30;;;;;;;;;;10360859;28;20025;-59
2023/07/07 12:09:16;;;;;;;4.10;2.97;;;;;;;;;;10347818;28;20361;-58
2023/07/07 12:15:12;;;;;;;5.05;2.75;;;;;;;;;;10339132;28;20080;-58
2023/07/07 12:20:29;;;;;;;5.22;3.15;;;;;;;;;;10375185;28;20053;-58
2023/07/07 12:25:31;;;;;;;4.65;3.10;;;;;;;;;;10370988;28;20104;-58
2023/07/07 12:30:36;;;;;;;5.88;3.35;;;;;;;;;;10363936;28;20116;-59
2023/07/07 12:35:58;;;;;;;3.55;3.17;;;;;;;;;;10372150;28;20169;-59
2023/07/07 12:41:11;;;;;;;8.15;3.45;;;;;;;;;;10375716;28;20038;-59
2023/07/07 12:46:22;;;;;;;9.18;3.45;;;;;;;;;;10370472;28;20022;-58
2023/07/07 12:51:24;;;;;;;5.97;3.38;;;;;;;;;;10334946;28;20049;-58
2023/07/07 12:56:28;;;;;;;5.65;3.25;;;;;;;;;;10337882;28;20056;-57
2023/07/07 13:01:39;;;;;;;4.70;3.05;;;;;;;;;;10342435;28;20457;-59
2023/07/07 13:07:03;;;;;;;9.40;3.15;;;;;;;;;;10352222;28;20037;-59
2023/07/07 13:12:45;;;;;;;6.00;3.38;;;;;;;;;;10354908;28;20108;-59
2023/07/07 13:17:48;;;;;;;4.95;3.40;;;;;;;;;;10353571;28;20470;-59
2023/07/07 13:23:22;;;;;;;7.07;3.28;;;;;;;;;;10342625;28;20030;-59
2023/07/07 13:28:24;;;;;;;5.38;3.03;;;;;;;;;;10346560;28;20458;-59
2023/07/07 13:33:28;;;;;;;4.97;2.67;;;;;;;;;;10352940;28;20418;-59
2023/07/07 13:38:34;;;;;;;5.25;3.25;;;;;;;;;;10350088;28;20097;-58
2023/07/07 13:43:41;;;;;;;5.72;3.28;;;;;;;;;;10342556;28;20030;-58
2023/07/07 13:48:48;;;;;;;6.57;3.17;;;;;;;;;;10355773;28;20497;-58
2023/07/07 13:53:48;;;;;;;3.33;2.83;;;;;;;;;;10341646;28;20492;-58
2023/07/07 13:58:52;;;;;;;5.22;3.25;;;;;;;;;;10328740;28;20033;-59
2023/07/07 14:03:57;;;;;;;8.27;3.17;;;;;;;;;;10333519;28;20196;-58
2023/07/07 14:08:58;;;;;;;7.10;3.25;;;;;;;;;;10350562;28;20464;-58
2023/07/07 14:14:00;;;;;;;9.45;3.42;;;;;;;;;;10349231;28;20089;-58
2023/07/07 14:19:15;;;;;;;4.57;3.53;;;;;;;;;;10344969;28;20075;-58
2023/07/07 14:24:21;;;;;;;11.38;3.90;;;;;;;;;;10334890;28;20054;-59
2023/07/07 14:29:35;;;;;;;18.80;3.65;;;;;;;;;;10342656;28;20018;-58
2023/07/07 14:34:57;;;;;;;8.32;3.60;;;;;;;;;;10338546;28;20088;-58
2023/07/07 14:40:00;;;;;;;6.93;3.35;;;;;;;;;;10342765;28;20121;-59
2023/07/07 14:45:00;;;;;;;17.27;4.05;;;;;;;;;;10341538;28;20038;-58
2023/07/07 14:50:05;;;;;;;11.27;4.22;;;;;;;;;;10328089;28;20046;-59
2023/07/07 14:55:24;;;;;;;7.18;3.70;;;;;;;;;;10339595;28;20042;-58
2023/07/07 15:00:42;;;;;;;11.05;3.88;;;;;;;;;;10343872;28;20433;-58
2023/07/07 15:05:44;;;;;;;7.03;3.20;;;;;;;;;;10350547;28;20026;-58
2023/07/07 15:10:44;;;;;;;6.75;3.45;;;;;;;;;;10323866;28;20048;-58
2023/07/07 15:15:47;;;;;;;11.32;4.38;;;;;;;;;;10342060;28;20030;-58
2023/07/07 15:20:48;;;;;;;10.77;4.28;;;;;;;;;;10349984;28;20058;-58
2023/07/07 15:25:49;;;;;;;7.90;4.07;;;;;;;;;;10348649;28;20340;-58
2023/07/07 15:30:49;;;;;;;12.73;3.88;;;;;;;;;;10367743;28;20261;-58
2023/07/07 15:35:51;;;;;;;7.00;3.65;;;;;;;;;;10343696;28;20049;-58
2023/07/07 15:40:51;;;;;;;10.13;3.78;;;;;;;;;;10333800;28;20033;-58
2023/07/07 15:45:52;;;;;;;13.38;4.50;;;;;;;;;;10343376;28;20023;-58
2023/07/07 15:50:53;;;;;;;11.77;4.05;;;;;;;;;;10344738;28;20609;-58
2023/07/07 15:55:54;;;;;;;13.18;3.70;;;;;;;;;;10342032;28;20492;-58
2023/07/07 16:00:54;;;;;;;8.02;3.95;;;;;;;;;;10342223;28;20037;-58
2023/07/07 16:05:55;;;;;;;8.38;3.50;;;;;;;;;;10337447;28;20474;-58
2023/07/07 16:10:56;;;;;;;6.90;3.47;;;;;;;;;;10355446;28;20500;-58
2023/07/07 16:15:56;;;;;;;9.20;3.35;;;;;;;;;;10361560;28;20156;-58
2023/07/07 16:20:58;;;;;;;8.57;3.55;;;;;;;;;;10359797;28;20029;-58
2023/07/07 16:25:59;;;;;;;8.48;3.80;;;;;;;;;;10342561;28;20528;-58
2023/07/07 16:30:59;;;;;;;6.70;3.38;;;;;;;;;;10344739;28;20064;-58
2023/07/07 16:36:00;;;;;;;10.57;3.72;;;;;;;;;;10341374;28;20023;-60
2023/07/07 16:41:01;;;;;;;10.75;4.00;;;;;;;;;;10356740;28;20030;-59
2023/07/07 16:46:09;;;;;;;7.72;3.53;;;;;;;;;;10344440;28;21837;-59
2023/07/07 16:51:19;;;;;;;8.10;3.55;;;;;;;;;;10339535;28;20444;-59
2023/07/07 16:56:33;;;;;;;7.57;4.38;;;;;;;;;;10359899;28;20042;-59
2023/07/07 17:01:33;;;;;;;7.25;3.55;;;;;;;;;;10332812;28;20026;-59
2023/07/07 17:06:35;;;;;;;4.57;3.10;;;;;;;;;;10350528;28;20021;-59
2023/07/07 17:11:36;;;;;;;4.70;3.17;;;;;;;;;;10340261;28;20061;-59
2023/07/07 17:16:36;;;;;;;6.60;3.65;;;;;;;;;;10361180;28;20033;-59
2023/07/07 17:21:37;;;;;;;14.68;3.72;;;;;;;;;;10337871;28;20481;-59
2023/07/07 17:26:38;;;;;;;4.38;3.50;;;;;;;;;;10339025;28;20029;-59
2023/07/07 17:31:39;;;;;;;6.93;3.47;;;;;;;;;;10346337;28;20022;-59
2023/07/07 17:36:40;;;;;;;5.28;3.58;;;;;;;;;;10351512;28;20026;-60
2023/07/07 17:41:42;;;;;;;5.60;3.30;;;;;;;;;;10344378;28;20544;-59
2023/07/07 17:46:42;;;;;;;5.28;3.67;;;;;;;;;;10345622;28;20498;-59
2023/07/07 17:51:43;;;;;;;4.35;3.25;;;;;;;;;;10346835;28;20045;-58
2023/07/07 17:56:44;;;;;;;7.85;3.55;;;;;;;;;;10346526;28;20738;-61
2023/07/07 18:01:46;;;;;;;5.63;3.55;;;;;;;;;;10336510;28;20025;-60
2023/07/07 18:06:50;;;;;;;5.43;3.63;;;;;;;;;;10349883;28;20030;-61
2023/07/07 18:11:50;;;;;;;4.60;3.33;;;;;;;;;;10356067;28;20035;-61
2023/07/07 18:16:51;;;;;;;6.32;3.45;;;;;;;;;;10353644;28;20021;-61
2023/07/07 18:21:51;;;;;;;8.10;3.55;;;;;;;;;;10332279;28;20026;-61
2023/07/07 18:26:52;;;;;;;5.97;3.35;;;;;;;;;;10343285;28;20041;-61
2023/07/07 18:31:53;;;;;;;5.22;3.53;;;;;;;;;;10351044;28;20025;-60
2023/07/07 18:36:53;;;;;;;5.28;3.72;;;;;;;;;;10355179;28;20046;-62
2023/07/07 18:41:55;;;;;;;7.15;4.10;;;;;;;;;;10336456;28;20513;-58
2023/07/07 18:46:56;;;;;;;5.50;3.42;;;;;;;;;;10343845;28;20120;-60
2023/07/07 18:51:57;;;;;;;7.25;3.78;;;;;;;;;;10355414;28;20034;-60
2023/07/07 18:56:57;;;;;;;6.47;3.60;;;;;;;;;;10362237;28;20478;-60
2023/07/07 19:01:58;;;;;;;6.30;3.55;;;;;;;;;;10361541;28;20026;-59
2023/07/07 19:06:58;;;;;;;5.00;3.60;;;;;;;;;;10350111;28;20026;-60
2023/07/07 19:11:59;;;;;;;8.38;4.07;;;;;;;;;;10347526;28;20100;-61
2023/07/07 19:16:59;;;;;;;7.85;3.97;;;;;;;;;;10346475;28;20026;-60
2023/07/07 19:22:00;;;;;;;6.53;4.50;;;;;;;;;;10345845;28;20030;-58
2023/07/07 19:27:00;;;;;;;6.47;4.80;;;;;;;;;;10367515;28;20034;-57
2023/07/07 19:32:08;;;;;;;6.95;4.50;;;;;;;;;;10348819;28;20077;-59
2023/07/07 19:37:10;;;;;;;7.38;4.70;;;;;;;;;;10340985;28;20030;-58
2023/07/07 19:42:12;;;;;;;9.55;4.85;;;;;;;;;;10349573;28;21340;-59
2023/07/07 19:47:13;;;;;;;10.63;5.38;;;;;;;;;;10353751;28;20053;-58
2023/07/07 19:52:18;;;;;;;10.77;5.20;;;;;;;;;;10357378;28;20037;-58
2023/07/07 19:57:22;;;;;;;13.45;4.65;;;;;;;;;;10358940;28;20037;-59
2023/07/07 20:02:26;;;;;;;12.63;5.15;;;;;;;;;;10362966;28;20064;-58
2023/07/07 20:07:26;;;;;;;12.48;6.22;;;;;;;;;;10341206;28;20149;-59
2023/07/07 20:12:27;;;;;;;11.43;6.57;;;;;;;;;;10365598;28;20042;-58
2023/07/07 20:17:27;;;;;;;17.05;7.32;;;;;;;;;;10362039;28;20038;-59
2023/07/07 20:22:28;;;;;;;9.93;6.18;;;;;;;;;;10363627;28;20038;-59
2023/07/07 20:27:28;;;;;;;10.00;6.65;;;;;;;;;;10354313;28;20429;-59
2023/07/07 20:32:29;;;;;;;11.50;6.88;;;;;;;;;;10364074;28;20018;-59
2023/07/07 20:37:30;;;;;;;12.68;7.18;;;;;;;;;;10362209;28;20041;-59
2023/07/07 20:42:30;;;;;;;14.60;7.40;;;;;;;;;;10357856;28;20022;-58
2023/07/07 20:47:31;;;;;;;14.05;8.48;;;;;;;;;;10364876;28;20308;-60
2023/07/07 20:52:31;;;;;;;13.55;7.85;;;;;;;;;;10360812;28;20034;-59
2023/07/07 20:57:32;;;;;;;14.18;8.35;;;;;;;;;;10362288;28;20100;-58
2023/07/07 21:02:32;;;;;;;14.70;8.07;;;;;;;;;;10360547;28;20025;-58
2023/07/07 21:07:33;;;;;;;15.80;8.20;;;;;;;;;;10352740;28;20030;-58
2023/07/07 21:12:34;;;;;;;10.55;7.03;;;;;;;;;;10357265;28;20033;-56
2023/07/07 21:17:34;;;;;;;9.45;6.45;;;;;;;;;;10344048;28;20024;-56
2023/07/07 21:22:35;;;;;;;10.43;6.70;;;;;;;;;;10338262;28;20371;-56
2023/07/07 21:27:36;;;;;;;15.77;8.00;;;;;;;;;;10346602;28;20033;-57
2023/07/07 21:32:36;;;;;;;14.27;7.22;;;;;;;;;;10335182;28;20030;-57
2023/07/07 21:37:37;;;;;;;13.23;6.95;;;;;;;;;;10345116;28;20474;-57
2023/07/07 21:42:38;;;;;;;12.77;6.85;;;;;;;;;;10335774;28;20402;-58
2023/07/07 21:47:39;;;;;;;12.00;7.10;;;;;;;;;;10337820;28;20046;-59
2023/07/07 21:52:40;;;;;;;13.02;6.82;;;;;;;;;;10356387;28;20042;-59
2023/07/07 21:57:53;;;;;;;12.73;6.40;;;;;;;;;;10340954;28;20104;-59
2023/07/07 22:03:11;;;;;;;8.98;6.68;;;;;;;;;;10340300;28;20035;-59
2023/07/07 22:08:14;;;;;;;;;;;;;;;;;;10342696;28;20034;-58
2023/07/07 22:13:14;;;;;;;9.20;5.57;;;;;;;;;;10342996;28;19945;-59
2023/07/07 22:18:18;;;;;;;9.77;6.38;;;;;;;;;;10358325;28;20033;-59
2023/07/07 22:23:19;;;;;;;11.35;6.07;;;;;;;;;;10330723;28;20093;-57
2023/07/07 22:28:29;;;;;;;10.85;6.28;;;;;;;;;;10335724;28;20092;-57
2023/07/07 22:33:30;;;;;;;10.35;6.07;;;;;;;;;;10341059;28;20035;-60
2023/07/07 22:38:30;;;;;;;9.05;5.60;;;;;;;;;;10335811;28;20042;-58
2023/07/07 22:43:31;;;;;;;14.48;5.75;;;;;;;;;;10334622;28;20034;-60
2023/07/07 22:48:31;;;;;;;18.65;5.70;;;;;;;;;;10351668;28;20284;-57
2023/07/07 22:53:32;;;;;;;8.63;5.65;;;;;;;;;;10368878;28;20092;-57
2023/07/07 22:58:32;;;;;;;10.02;6.03;;;;;;;;;;10350380;28;20080;-57
2023/07/07 23:03:33;;;;;;;8.70;5.57;;;;;;;;;;10354829;28;20022;-57
2023/07/07 23:08:34;;;;;;;13.13;5.13;;;;;;;;;;10338456;28;20037;-57
2023/07/07 23:13:34;;;;;;;11.10;5.68;;;;;;;;;;10338021;28;20031;-57
2023/07/07 23:18:37;;;;;;;10.45;5.35;;;;;;;;;;10350052;28;20026;-60
2023/07/07 23:23:38;;;;;;;8.48;4.85;;;;;;;;;;10349794;28;20080;-60
2023/07/07 23:28:39;;;;;;;8.60;5.20;;;;;;;;;;10360234;28;20072;-58
2023/07/07 23:33:39;;;;;;;7.60;5.10;;;;;;;;;;10339727;28;20045;-57
2023/07/07 23:38:40;;;;;;;14.57;5.40;;;;;;;;;;10332202;28;20038;-59
2023/07/07 23:43:41;;;;;;;11.88;5.05;;;;;;;;;;10345188;28;20037;-58
2023/07/07 23:48:42;;;;;;;8.30;5.65;;;;;;;;;;10357148;28;20045;-59
2023/07/07 23:53:45;;;;;;;8.13;4.97;;;;;;;;;;10357537;28;20057;-60
2023/07/07 23:58:46;;;;;;;11.18;5.38;;;;;;;;;;10349597;28;20321;-58
